createdAt,value
2022-12-19T00:01:00.926Z,100425.69
2022-12-19T00:01:52.820Z,100431.92
2022-12-19T00:02:53.151Z,100420.77
2022-12-19T00:03:54.174Z,100426.52
2022-12-19T00:04:52.653Z,100433.85
2022-12-19T00:05:52.686Z,100427.5
2022-12-19T00:06:52.659Z,100427.61
2022-12-19T00:07:52.778Z,100435.64
2022-12-19T00:08:53.355Z,100433.62
2022-12-19T00:09:52.662Z,100436.29
2022-12-19T00:10:56.379Z,100432.92
2022-12-19T00:11:53.065Z,100428.31
2022-12-19T00:12:53.142Z,100426.84
2022-12-19T00:13:53.354Z,100434.06
2022-12-19T00:14:53.039Z,100429.23
2022-12-19T00:15:53.661Z,100427.82
2022-12-19T00:16:53.571Z,100425.27
2022-12-19T00:17:53.548Z,100422.98
2022-12-19T00:18:55.357Z,100411.16
2022-12-19T00:19:53.570Z,100429.39
2022-12-19T00:20:54.297Z,100431.78
2022-12-19T00:21:53.645Z,100427.49
2022-12-19T00:22:53.600Z,100425.27
2022-12-19T00:23:53.879Z,100433.79
2022-12-19T00:24:53.617Z,100437.27
2022-12-19T00:25:53.695Z,100429.28
2022-12-19T00:26:53.627Z,100427.05
2022-12-19T00:27:53.779Z,100423.91
2022-12-19T00:28:58.011Z,100429.77
2022-12-19T00:29:54.656Z,100418.53
2022-12-19T00:30:55.654Z,100421.73
2022-12-19T00:31:54.745Z,100426.42
2022-12-19T00:32:55.692Z,100428.9
2022-12-19T00:33:54.972Z,100430.8
2022-12-19T00:34:54.727Z,100428.36
2022-12-19T00:36:01.148Z,100440.57
2022-12-19T00:36:57.831Z,100427.45
2022-12-19T00:37:57.885Z,100435.92
2022-12-19T00:38:58.698Z,100425.98
2022-12-19T00:39:57.863Z,100448.78
2022-12-19T00:41:06.494Z,100441.56
2022-12-19T00:41:58.163Z,100441.52
2022-12-19T00:42:58.184Z,100446.51
2022-12-19T00:44:00.088Z,100448.68
2022-12-19T00:44:58.265Z,100453.08
2022-12-19T00:45:58.237Z,100450.41
2022-12-19T00:46:58.216Z,100462.25
2022-12-19T00:47:58.241Z,100452.86
2022-12-19T00:48:58.763Z,100444.44
2022-12-19T00:49:58.238Z,100446.94
2022-12-19T00:50:59.093Z,100447.91
2022-12-19T00:51:58.230Z,100443.41
2022-12-19T00:52:58.284Z,100446.17
2022-12-19T00:53:58.879Z,100449.44
2022-12-19T00:54:58.417Z,100452.58
2022-12-19T00:56:01.793Z,100452.47
2022-12-19T00:56:58.424Z,100460.02
2022-12-19T00:57:59.608Z,100448.72
2022-12-19T00:58:58.520Z,100443.12
2022-12-19T00:59:58.501Z,100446.83
2022-12-19T01:00:58.757Z,100457.63
2022-12-19T01:01:59.152Z,100451.92
2022-12-19T01:02:58.777Z,100453.45
2022-12-19T01:04:27.050Z,100453.45
2022-12-19T01:05:00.128Z,100451.98
2022-12-19T01:06:00.230Z,100453.45
2022-12-19T01:07:02.541Z,100451.98
2022-12-19T01:08:00.207Z,100446.38
2022-12-19T01:09:00.168Z,100453.17
2022-12-19T01:10:00.192Z,100445.52
2022-12-19T01:11:00.337Z,100449.05
2022-12-19T01:12:00.224Z,100439.11
2022-12-19T01:13:00.265Z,100446.61
2022-12-19T01:14:00.224Z,100446.5
2022-12-19T01:15:04.051Z,100445.84
2022-12-19T01:16:05.819Z,100440.3
2022-12-19T01:17:02.100Z,100443.45
2022-12-19T01:18:02.170Z,100435.91
2022-12-19T01:19:02.116Z,100437.69
2022-12-19T01:20:02.173Z,100435.75
2022-12-19T01:21:03.469Z,100449
2022-12-19T01:22:02.181Z,100437.97
2022-12-19T01:23:02.147Z,100446.99
2022-12-19T01:24:02.588Z,100438.58
2022-12-19T01:25:02.196Z,100447.38
2022-12-19T01:26:02.198Z,100443.95
2022-12-19T01:27:02.222Z,100441.3
2022-12-19T01:28:02.472Z,100449.58
2022-12-19T01:29:02.254Z,100450.41
2022-12-19T01:30:02.420Z,100453.08
2022-12-19T01:31:05.103Z,100451.5
2022-12-19T01:32:02.501Z,100448.84
2022-12-19T01:33:02.706Z,100451.34
2022-12-19T01:34:02.490Z,100448.73
2022-12-19T01:35:02.761Z,100441.88
2022-12-19T01:36:05.865Z,100449.7
2022-12-19T01:37:02.495Z,100450.3
2022-12-19T01:38:08.427Z,100451.28
2022-12-19T01:39:04.929Z,100457.14
2022-12-19T01:40:05.421Z,100451.01
2022-12-19T01:41:05.146Z,100449.65
2022-12-19T01:44:08.855Z,100442.05
2022-12-19T01:46:14.457Z,100442.36
2022-12-19T01:47:13.391Z,100454.97
2022-12-19T01:48:17.291Z,100454.2
2022-12-19T01:49:22.994Z,100446.06
2022-12-19T01:50:23.375Z,100456.27
2022-12-19T01:51:22.123Z,100455.67
2022-12-19T01:52:23.526Z,100456.64
2022-12-19T01:53:22.933Z,100453.44
2022-12-19T01:54:22.443Z,100460.19
2022-12-19T01:55:21.224Z,100456.33
2022-12-19T01:56:23.809Z,100449.48
2022-12-19T01:57:21.198Z,100459.85
2022-12-19T01:58:21.541Z,100461.81
2022-12-19T01:59:22.348Z,100468.88
2022-12-19T02:00:20.905Z,100456.66
2022-12-19T02:01:20.957Z,100440.35
2022-12-19T02:02:28.204Z,100457.73
2022-12-19T02:03:27.679Z,100439.86
2022-12-19T02:04:32.037Z,100449.8
2022-12-19T02:05:29.676Z,100451.76
2022-12-19T02:06:31.094Z,100446.44
2022-12-19T02:07:29.647Z,100452.36
2022-12-19T02:08:29.588Z,100436.81
2022-12-19T02:09:29.560Z,100454.3
2022-12-19T02:10:29.490Z,100446.38
2022-12-19T02:11:29.532Z,100457.34
2022-12-19T02:12:31.280Z,100464.12
2022-12-19T02:13:29.810Z,100450.66
2022-12-19T02:14:29.813Z,100462.02
2022-12-19T02:15:32.899Z,100465.66
2022-12-19T02:16:40.119Z,100464.84
2022-12-19T02:17:42.560Z,100451.74
2022-12-19T02:18:43.763Z,100470
2022-12-19T02:35:25.554Z,100468.09
2022-12-19T02:36:26.284Z,100469.52
2022-12-19T02:37:30.809Z,100464.2
2022-12-19T02:38:30.906Z,100472.02
2022-12-19T02:39:34.021Z,100476.15
2022-12-19T02:40:33.555Z,100466.91
2022-12-19T02:41:35.796Z,100462.12
2022-12-19T02:42:33.343Z,100474.41
2022-12-19T02:43:35.542Z,100487.22
2022-12-19T02:45:35.732Z,100486.73
2022-12-19T02:46:33.758Z,100479.62
2022-12-19T02:47:34.170Z,100477.94
2022-12-19T02:48:34.358Z,100484.18
2022-12-19T02:49:35.198Z,100492.66
2022-12-19T02:50:41.415Z,100486.89
2022-12-19T02:51:37.631Z,100491.52
2022-12-19T02:52:43.034Z,100491.19
2022-12-19T02:53:39.734Z,100475.75
2022-12-19T02:54:44.842Z,100491.99
2022-12-19T02:55:50.623Z,100486.5
2022-12-19T03:00:03.142Z,100485.3
2022-12-19T03:02:00.112Z,100488.41
2022-12-19T03:03:08.703Z,100490.19
2022-12-19T03:08:23.378Z,100486.07
2022-12-19T03:09:24.471Z,100479.82
2022-12-19T03:10:27.063Z,100478.9
2022-12-19T03:11:21.365Z,100476.72
2022-12-19T03:12:22.773Z,100476.46
2022-12-19T03:13:22.921Z,100491.25
2022-12-19T03:14:20.748Z,100495.97
2022-12-19T03:15:20.642Z,100490.2
2022-12-19T03:16:19.661Z,100489.94
2022-12-19T03:17:19.733Z,100493.73
2022-12-19T03:18:19.935Z,100494.98
2022-12-19T03:19:19.904Z,100490.2
2022-12-19T03:22:22.741Z,100483.62
2022-12-19T03:23:22.754Z,100502.7
2022-12-19T03:24:22.842Z,100500.09
2022-12-19T03:25:24.070Z,100501.61
2022-12-19T03:26:24.623Z,100502.16
2022-12-19T03:28:27.787Z,100496.32
2022-12-19T03:30:29.429Z,100506.03
2022-12-19T03:31:28.948Z,100503.97
2022-12-19T03:32:29.467Z,100490.14
2022-12-19T03:33:31.030Z,100488.08
2022-12-19T03:35:32.721Z,100498.42
2022-12-19T03:36:34.496Z,100492.3
2022-12-19T03:37:34.202Z,100498.21
2022-12-19T03:38:32.727Z,100497.3
2022-12-19T03:39:32.494Z,100494.46
2022-12-19T03:40:32.851Z,100496.97
2022-12-19T03:41:32.265Z,100503.05
2022-12-19T03:42:32.626Z,100500.09
2022-12-19T03:43:32.414Z,100493.58
2022-12-19T03:44:34.131Z,100489.81
2022-12-19T03:46:39.483Z,100502.53
2022-12-19T03:49:40.135Z,100507.95
2022-12-19T03:58:04.998Z,100487.34
2022-12-19T03:59:05.101Z,100472.94
2022-12-19T04:00:06.292Z,100478.77
2022-12-19T04:01:03.755Z,100490.03
2022-12-19T04:02:04.084Z,100485.26
2022-12-19T04:03:03.454Z,100488.45
2022-12-19T04:04:04.205Z,100494.55
2022-12-19T04:05:05.977Z,100473.88
2022-12-19T04:06:03.294Z,100493.52
2022-12-19T04:07:03.692Z,100491.02
2022-12-19T04:08:05.977Z,100498.46
2022-12-19T04:09:02.984Z,100489.94
2022-12-19T04:10:05.345Z,100494.61
2022-12-19T04:11:08.710Z,100484.66
2022-12-19T04:12:07.711Z,100502.38
2022-12-19T04:13:09.230Z,100481.22
2022-12-19T04:14:12.248Z,100487.55
2022-12-19T04:15:09.081Z,100499.72
2022-12-19T04:18:14.301Z,100500.1
2022-12-19T04:20:17.133Z,100506.84
2022-12-19T04:21:18.967Z,100519.19
2022-12-19T04:22:21.021Z,100509.12
2022-12-19T04:26:26.971Z,100515.8
2022-12-19T04:27:26.907Z,100513.58
2022-12-19T04:28:30.340Z,100522.35
2022-12-19T04:29:28.529Z,100525.17
2022-12-19T04:30:26.597Z,100514.69
2022-12-19T04:31:26.657Z,100514.34
2022-12-19T04:32:27.195Z,100521.58
2022-12-19T04:33:26.645Z,100519.14
2022-12-19T04:34:26.711Z,100507.82
2022-12-19T04:35:26.680Z,100503.53
2022-12-19T04:36:26.733Z,100510.55
2022-12-19T04:37:26.844Z,100511.91
2022-12-19T04:38:26.887Z,100517.78
2022-12-19T04:39:27.251Z,100513.58
2022-12-19T04:40:26.829Z,100508.2
2022-12-19T04:41:26.733Z,100502.56
2022-12-19T04:42:26.767Z,100518.37
2022-12-19T04:43:26.788Z,100521.3
2022-12-19T04:44:26.826Z,100527.56
2022-12-19T04:45:26.854Z,100516.74
2022-12-19T04:46:27.007Z,100525.7
2022-12-19T04:47:26.893Z,100511.39
2022-12-19T04:48:26.873Z,100524.06
2022-12-19T04:49:26.878Z,100516.25
2022-12-19T04:50:26.958Z,100523.98
2022-12-19T04:51:26.923Z,100523.16
2022-12-19T04:52:26.928Z,100523.91
2022-12-19T04:53:26.952Z,100527.89
2022-12-19T04:54:26.964Z,100522.94
2022-12-19T04:55:27.080Z,100525.33
2022-12-19T04:56:26.972Z,100525.49
2022-12-19T04:57:30.365Z,100535.55
2022-12-19T04:58:27.013Z,100528.37
2022-12-19T04:59:27.089Z,100529.93
2022-12-19T05:00:27.059Z,100523.27
2022-12-19T05:01:27.265Z,100528.16
2022-12-19T05:02:27.234Z,100524.2
2022-12-19T05:03:27.151Z,100521.69
2022-12-19T05:04:27.134Z,100532.89
2022-12-19T05:05:27.226Z,100525.83
2022-12-19T05:06:27.126Z,100524.91
2022-12-19T05:07:27.222Z,100531.16
2022-12-19T05:08:27.197Z,100523.81
2022-12-19T05:09:27.182Z,100530.72
2022-12-19T05:10:27.187Z,100523.75
2022-12-19T05:11:27.262Z,100532.23
2022-12-19T05:12:28.385Z,100528.44
2022-12-19T05:13:27.848Z,100526.16
2022-12-19T05:14:27.267Z,100534.53
2022-12-19T05:15:27.310Z,100530.88
2022-12-19T05:16:27.406Z,100527.08
2022-12-19T05:17:27.313Z,100519.78
2022-12-19T05:18:27.947Z,100518.32
2022-12-19T05:19:27.368Z,100512.83
2022-12-19T05:20:27.379Z,100514.19
2022-12-19T05:21:27.661Z,100520.23
2022-12-19T05:22:27.625Z,100521.59
2022-12-19T05:23:27.742Z,100524.64
2022-12-19T05:24:27.453Z,100522.3
2022-12-19T05:25:27.485Z,100525.28
2022-12-19T05:26:27.483Z,100530.56
2022-12-19T05:27:27.524Z,100535.24
2022-12-19T05:28:27.662Z,100532.03
2022-12-19T05:29:27.511Z,100529.09
2022-12-19T05:30:27.520Z,100533.67
2022-12-19T05:31:27.595Z,100531.11
2022-12-19T05:32:30.083Z,100525.67
2022-12-19T05:33:27.561Z,100528.45
2022-12-19T05:34:27.927Z,100538.94
2022-12-19T05:35:27.723Z,100541.72
2022-12-19T05:36:32.259Z,100532.47
2022-12-19T05:37:28.940Z,100534.17
2022-12-19T05:38:29.295Z,100537.61
2022-12-19T05:39:29.235Z,100538.62
2022-12-19T05:40:29.217Z,100542.44
2022-12-19T05:41:29.077Z,100546.53
2022-12-19T05:42:29.024Z,100552.88
2022-12-19T05:43:29.027Z,100542.66
2022-12-19T05:44:29.071Z,100547.62
2022-12-19T05:45:29.108Z,100552.41
2022-12-19T05:46:29.198Z,100561.7
2022-12-19T05:47:29.160Z,100571.84
2022-12-19T05:48:29.149Z,100553.19
2022-12-19T05:49:29.162Z,100558.63
2022-12-19T05:50:29.169Z,100566.63
2022-12-19T05:51:29.229Z,100565.11
2022-12-19T05:52:29.213Z,100565.83
2022-12-19T05:53:29.281Z,100565.6
2022-12-19T05:54:29.195Z,100563.96
2022-12-19T05:55:29.237Z,100576.41
2022-12-19T05:56:29.287Z,100582.18
2022-12-19T05:57:29.248Z,100575.7
2022-12-19T05:58:29.423Z,100569.82
2022-12-19T05:59:29.313Z,100575.37
2022-12-19T06:00:29.380Z,100579.39
2022-12-19T06:01:29.716Z,100584.52
2022-12-19T06:02:32.306Z,100583.16
2022-12-19T06:03:29.400Z,100579.34
2022-12-19T06:04:29.769Z,100587.94
2022-12-19T06:05:29.616Z,100586.25
2022-12-19T06:06:29.457Z,100583.1
2022-12-19T06:07:29.505Z,100590.72
2022-12-19T06:08:29.470Z,100590.17
2022-12-19T06:09:29.454Z,100595.02
2022-12-19T06:10:29.493Z,100582.93
2022-12-19T06:11:29.494Z,100595.98
2022-12-19T06:12:29.788Z,100590.77
2022-12-19T06:13:29.862Z,100596.27
2022-12-19T06:14:29.568Z,100592.83
2022-12-19T06:15:29.583Z,100585.54
2022-12-19T06:16:29.709Z,100593.75
2022-12-19T06:17:29.586Z,100600.88
2022-12-19T06:18:29.900Z,100601.43
2022-12-19T06:19:29.638Z,100593.7
2022-12-19T06:20:29.643Z,100596.42
2022-12-19T06:21:29.644Z,100596.48
2022-12-19T06:22:29.665Z,100600.68
2022-12-19T06:23:31.279Z,100600.61
2022-12-19T06:24:29.699Z,100596.97
2022-12-19T06:25:29.715Z,100587.52
2022-12-19T06:26:29.752Z,100589.53
2022-12-19T06:27:29.771Z,100594.64
2022-12-19T06:28:30.363Z,100601.06
2022-12-19T06:29:29.801Z,100591.49
2022-12-19T06:30:29.822Z,100593.23
2022-12-19T06:31:29.866Z,100597.58
2022-12-19T06:32:33.527Z,100596.44
2022-12-19T06:33:34.199Z,100595.9
2022-12-19T06:35:02.790Z,100594.7
2022-12-19T06:35:35.169Z,100593.56
2022-12-19T06:36:35.155Z,100590.03
2022-12-19T06:37:38.957Z,100591.88
2022-12-19T06:38:35.716Z,100604.12
2022-12-19T06:39:35.782Z,100590.26
2022-12-19T06:40:39.951Z,100597.87
2022-12-19T06:41:36.319Z,100603.02
2022-12-19T06:42:36.177Z,100600.48
2022-12-19T06:43:36.230Z,100600.52
2022-12-19T06:44:36.302Z,100595.8
2022-12-19T06:45:36.265Z,100601
2022-12-19T06:46:36.844Z,100605.36
2022-12-19T06:47:36.298Z,100601.77
2022-12-19T06:48:36.304Z,100602.16
2022-12-19T06:49:36.367Z,100603.78
2022-12-19T06:50:36.316Z,100602.42
2022-12-19T06:51:36.822Z,100606.5
2022-12-19T06:52:36.335Z,100615.38
2022-12-19T06:53:36.647Z,100613.63
2022-12-19T06:54:36.439Z,100609.88
2022-12-19T06:55:37.294Z,100611.13
2022-12-19T06:56:36.986Z,100626.14
2022-12-19T06:57:36.473Z,100617.37
2022-12-19T06:58:36.484Z,100610.3
2022-12-19T06:59:36.613Z,100623.51
2022-12-19T07:00:36.545Z,100617.75
2022-12-19T07:02:38.557Z,100621.77
2022-12-19T07:03:39.643Z,100624.55
2022-12-19T07:05:42.736Z,100622.26
2022-12-19T07:06:48.717Z,100622.16
2022-12-19T07:07:45.856Z,100629.05
2022-12-19T07:08:45.873Z,100619
2022-12-19T07:09:46.114Z,100628.23
2022-12-19T07:10:46.047Z,100625.58
2022-12-19T07:11:45.885Z,100627.15
2022-12-19T07:12:45.975Z,100626.55
2022-12-19T07:13:46.004Z,100629.32
2022-12-19T07:14:51.681Z,100634.78
2022-12-19T07:15:50.883Z,100633.31
2022-12-19T07:16:50.752Z,100631.69
2022-12-19T07:17:49.997Z,100632.23
2022-12-19T07:18:50.141Z,100630.33
2022-12-19T07:19:50.344Z,100639.34
2022-12-19T07:20:50.075Z,100639.55
2022-12-19T07:21:50.051Z,100642.81
2022-12-19T07:22:50.084Z,100641.78
2022-12-19T07:23:50.116Z,100637.22
2022-12-19T07:24:50.147Z,100632.05
2022-12-19T07:25:50.229Z,100640.25
2022-12-19T07:26:50.358Z,100632.88
2022-12-19T07:27:51.561Z,100632.55
2022-12-19T07:28:50.334Z,100639.44
2022-12-19T07:29:50.171Z,100633.44
2022-12-19T07:30:50.228Z,100639.52
2022-12-19T07:31:50.196Z,100631.67
2022-12-19T07:32:50.209Z,100631.67
2022-12-19T07:33:50.206Z,100638.97
2022-12-19T07:34:50.270Z,100632.52
2022-12-19T07:35:50.276Z,100639.19
2022-12-19T07:36:50.249Z,100632.08
2022-12-19T07:37:50.658Z,100637.89
2022-12-19T07:38:50.305Z,100636.8
2022-12-19T07:39:50.389Z,100651.24
2022-12-19T07:40:50.384Z,100645.33
2022-12-19T07:41:50.451Z,100647.88
2022-12-19T07:42:50.469Z,100657.38
2022-12-19T07:43:50.362Z,100651.12
2022-12-19T07:44:50.365Z,100652.21
2022-12-19T07:45:53.869Z,100652.59
2022-12-19T07:46:50.628Z,100646.24
2022-12-19T07:47:50.723Z,100661.02
2022-12-19T07:48:50.733Z,100650.59
2022-12-19T07:49:50.737Z,100656.06
2022-12-19T07:50:50.966Z,100654.88
2022-12-19T07:51:50.781Z,100649.34
2022-12-19T07:52:50.739Z,100658.63
2022-12-19T07:53:50.746Z,100655.8
2022-12-19T07:54:50.914Z,100662.81
2022-12-19T07:55:51.204Z,100664.39
2022-12-19T07:56:50.991Z,100668.02
2022-12-19T07:57:51.135Z,100678.64
2022-12-19T07:58:50.818Z,100669.09
2022-12-19T07:59:50.860Z,100660.45
2022-12-19T08:00:54.687Z,100664.09
2022-12-19T08:01:51.640Z,100672.23
2022-12-19T08:02:51.707Z,100673.33
2022-12-19T08:03:51.569Z,100677.14
2022-12-19T08:04:51.481Z,100677.62
2022-12-19T08:05:51.537Z,100677.62
2022-12-19T08:06:51.631Z,100679.9
2022-12-19T08:07:51.564Z,100686.19
2022-12-19T08:08:51.589Z,100688.25
2022-12-19T08:09:51.594Z,100696.83
2022-12-19T08:10:51.584Z,100690.95
2022-12-19T08:11:51.749Z,100688.77
2022-12-19T08:12:51.695Z,100699.86
2022-12-19T08:13:52.137Z,100693.23
2022-12-19T08:14:56.871Z,100688.97
2022-12-19T08:15:53.976Z,100698.64
2022-12-19T08:17:19.874Z,100694.61
2022-12-19T08:17:55.328Z,100698.22
2022-12-19T08:18:55.368Z,100696.86
2022-12-19T08:19:55.321Z,100686.73
2022-12-19T08:20:55.326Z,100684.45
2022-12-19T08:21:55.353Z,100683.45
2022-12-19T08:22:55.310Z,100689.31
2022-12-19T08:23:55.331Z,100704.92
2022-12-19T08:24:55.346Z,100697.73
2022-12-19T08:25:58.965Z,100715.09
2022-12-19T08:26:55.404Z,100709.06
2022-12-19T08:27:55.408Z,100706.23
2022-12-19T08:28:56.415Z,100700.48
2022-12-19T08:29:55.438Z,100713.06
2022-12-19T08:30:56.496Z,100709.59
2022-12-19T08:31:56.258Z,100705.2
2022-12-19T08:32:56.237Z,100713.88
2022-12-19T08:33:56.602Z,100719.1
2022-12-19T08:34:56.310Z,100711.39
2022-12-19T08:35:56.232Z,100710.36
2022-12-19T08:36:56.311Z,100712.9
2022-12-19T08:37:56.508Z,100714.36
2022-12-19T08:38:56.343Z,100708.44
2022-12-19T08:39:56.281Z,100707.87
2022-12-19T08:40:56.308Z,100719.52
2022-12-19T08:41:56.347Z,100711.18
2022-12-19T08:42:56.316Z,100710.83
2022-12-19T08:43:56.476Z,100714.31
2022-12-19T08:44:56.378Z,100727.98
2022-12-19T08:45:56.444Z,100727.49
2022-12-19T08:46:56.465Z,100713.77
2022-12-19T08:47:56.400Z,100718.59
2022-12-19T08:48:56.423Z,100724.84
2022-12-19T08:49:56.463Z,100726.52
2022-12-19T08:50:57.537Z,100717.95
2022-12-19T08:51:56.501Z,100719.29
2022-12-19T08:52:56.473Z,100729.38
2022-12-19T08:53:56.506Z,100720.53
2022-12-19T08:54:56.502Z,100737.94
2022-12-19T08:55:57.123Z,100713.21
2022-12-19T08:56:56.590Z,100727.72
2022-12-19T08:57:56.565Z,100727.27
2022-12-19T08:58:56.578Z,100726.55
2022-12-19T08:59:56.609Z,100729.8
2022-12-19T09:01:57.549Z,100725.41
2022-12-19T09:02:57.339Z,100722.27
2022-12-19T09:05:28.493Z,100721.34
2022-12-19T09:05:59.701Z,100733.41
2022-12-19T09:06:08.223Z,100725.2
2022-12-19T09:07:06.743Z,100726.72
2022-12-19T09:08:06.833Z,100724.41
2022-12-19T09:09:06.764Z,100721.58
2022-12-19T09:10:07.181Z,100728.77
2022-12-19T09:11:08.192Z,100726.01
2022-12-19T09:12:06.821Z,100727.95
2022-12-19T09:13:06.812Z,100725.91
2022-12-19T09:14:06.799Z,100735.5
2022-12-19T09:15:07.138Z,100729.73
2022-12-19T09:16:08.160Z,100732.61
2022-12-19T09:17:06.950Z,100731.53
2022-12-19T09:18:07.050Z,100722.67
2022-12-19T09:19:06.880Z,100723.58
2022-12-19T09:20:07.329Z,100726.53
2022-12-19T09:21:07.893Z,100725.2
2022-12-19T09:22:06.920Z,100726.55
2022-12-19T09:23:06.962Z,100728.08
2022-12-19T09:24:08.553Z,100732.38
2022-12-19T09:25:07.304Z,100731.57
2022-12-19T09:26:08.491Z,100732.54
2022-12-19T09:27:07.000Z,100721.11
2022-12-19T09:29:19.512Z,100726.92
2022-12-19T09:30:12.413Z,100727.95
2022-12-19T09:31:12.881Z,100735.72
2022-12-19T09:32:11.690Z,100732.83
2022-12-19T09:33:11.821Z,100730.16
2022-12-19T09:34:11.579Z,100727.04
2022-12-19T09:35:13.593Z,100730.34
2022-12-19T09:36:12.485Z,100733.7
2022-12-19T09:37:15.886Z,100732.4
2022-12-19T09:38:13.910Z,100733.14
2022-12-19T09:39:14.227Z,100720.09
2022-12-19T09:40:16.174Z,100726.05
2022-12-19T09:43:27.380Z,100735.41
2022-12-19T09:47:26.480Z,100738.39
2022-12-19T09:48:25.024Z,100730.35
2022-12-19T09:52:38.275Z,100737.22
2022-12-19T09:55:39.461Z,100726.81
2022-12-19T09:56:45.563Z,100730.37
2022-12-19T09:57:47.093Z,100729.28
2022-12-19T09:58:44.943Z,100722.62
2022-12-19T09:59:50.001Z,100724.56
2022-12-19T10:00:46.608Z,100727.42
2022-12-19T10:02:53.936Z,100719.97
2022-12-19T10:03:58.043Z,100715.72
2022-12-19T10:07:11.331Z,100719.88
2022-12-19T10:08:09.117Z,100721.26
2022-12-19T10:10:23.251Z,100722.36
2022-12-19T10:12:36.334Z,100719.47
2022-12-19T10:16:21.361Z,100734.15
2022-12-19T10:20:33.637Z,100724.95
2022-12-19T10:22:07.717Z,100724.42
2022-12-19T10:26:52.037Z,100720.52
2022-12-19T10:27:59.172Z,100729.04
2022-12-19T10:29:05.494Z,100721.42
2022-12-19T10:31:18.883Z,100725.77
2022-12-19T10:32:04.129Z,100732.72
2022-12-19T10:36:09.176Z,100732.5
2022-12-19T10:44:19.717Z,100737.32
2022-12-19T10:45:20.410Z,100740.98
2022-12-19T10:47:21.502Z,100740.62
2022-12-19T10:48:27.091Z,100736.28
2022-12-19T10:49:23.011Z,100735.69
2022-12-19T10:50:24.349Z,100740.16
2022-12-19T10:51:23.702Z,100741.59
2022-12-19T10:53:28.188Z,100734.69
2022-12-19T10:55:32.999Z,100733.7
2022-12-19T10:56:37.216Z,100735.94
2022-12-19T10:57:34.662Z,100736.22
2022-12-19T10:58:36.725Z,100735.97
2022-12-19T10:59:34.532Z,100728.27
2022-12-19T11:00:34.636Z,100726.69
2022-12-19T11:01:38.445Z,100732.41
2022-12-19T11:02:44.542Z,100730.57
2022-12-19T11:03:37.602Z,100730.3
2022-12-19T11:04:36.842Z,100723.86
2022-12-19T11:05:57.149Z,100726.51
2022-12-19T11:06:43.524Z,100726.42
2022-12-19T11:07:39.745Z,100725
2022-12-19T11:08:39.896Z,100729.45
2022-12-19T11:09:40.972Z,100725.53
2022-12-19T11:13:30.945Z,100722.26
2022-12-19T11:19:13.322Z,100719.95
2022-12-19T11:19:48.215Z,100724.5
2022-12-19T11:21:01.934Z,100722.88
2022-12-19T11:23:09.436Z,100718.09
2022-12-19T11:28:07.844Z,100720.55
2022-12-19T11:29:26.877Z,100717.6
2022-12-19T11:29:30.743Z,100720.84
2022-12-19T11:29:36.944Z,100720.92
2022-12-19T11:29:54.354Z,100717.52
2022-12-19T11:30:08.456Z,100717.53
2022-12-19T11:30:43.936Z,100714.12
2022-12-19T11:33:26.089Z,100722.2
2022-12-19T11:34:27.921Z,100723.34
2022-12-19T11:35:37.294Z,100716.22
2022-12-19T11:36:37.487Z,100717.61
2022-12-19T11:37:39.022Z,100718.88
2022-12-19T11:40:49.268Z,100712.97
2022-12-19T11:41:49.132Z,100715.62
2022-12-19T11:43:56.013Z,100712.91
2022-12-19T11:45:00.346Z,100710.02
2022-12-19T11:46:06.637Z,100715.55
2022-12-19T11:52:54.312Z,100704.88
2022-12-19T11:53:18.879Z,100707.95
2022-12-19T11:54:19.570Z,100707.69
2022-12-19T11:56:21.407Z,100701.59
2022-12-19T11:57:17.935Z,100704.14
2022-12-19T11:58:17.838Z,100707.41
2022-12-19T11:59:24.402Z,100701.27
2022-12-19T12:00:22.953Z,100699.79
2022-12-19T12:05:46.026Z,100709.2
2022-12-19T12:06:43.074Z,100701.77
2022-12-19T12:09:07.035Z,100707.66
2022-12-19T12:22:17.630Z,100717.41
2022-12-19T12:30:59.452Z,100715.98
2022-12-19T12:31:06.909Z,100718.77
2022-12-19T12:31:45.687Z,100722.58
2022-12-19T12:32:05.396Z,100718.22
2022-12-19T12:44:33.070Z,100714.16
2022-12-19T12:45:27.737Z,100723.36
2022-12-19T12:46:31.295Z,100717.65
2022-12-19T12:47:28.101Z,100722.53
2022-12-19T12:49:40.020Z,100721.14
2022-12-19T12:50:40.353Z,100722.38
2022-12-19T12:51:37.544Z,100717.8
2022-12-19T12:52:44.387Z,100715.2
2022-12-19T12:53:43.701Z,100716.16
2022-12-19T12:54:42.896Z,100712.11
2022-12-19T12:55:41.725Z,100718.88
2022-12-19T12:56:42.020Z,100715.16
2022-12-19T12:57:41.168Z,100713.91
2022-12-19T12:59:45.992Z,100711.84
2022-12-19T13:01:49.801Z,100720.61
2022-12-19T13:03:54.518Z,100712.73
2022-12-19T13:04:58.245Z,100709.09
2022-12-19T13:08:00.100Z,100715.12
2022-12-19T13:10:06.977Z,100713.05
2022-12-19T13:11:06.240Z,100710.49
2022-12-19T13:12:13.083Z,100715.34
2022-12-19T13:13:14.518Z,100717.31
2022-12-19T13:17:19.893Z,100713.21
2022-12-19T13:18:31.204Z,100705.97
2022-12-19T13:19:27.961Z,100709.97
2022-12-19T13:21:26.024Z,100704.56
2022-12-19T13:24:37.219Z,100701.91
2022-12-19T13:27:37.483Z,100704.23
2022-12-19T13:28:39.044Z,100707.08
2022-12-19T13:31:39.652Z,100709.43
2022-12-19T13:36:29.629Z,100706.98
2022-12-19T13:39:51.037Z,100708.91
2022-12-19T13:39:57.112Z,100702.89
2022-12-19T13:41:00.534Z,100696.48
2022-12-19T13:44:01.876Z,100692.3
2022-12-19T13:45:04.939Z,100689.69
2022-12-19T13:46:03.650Z,100692.15
2022-12-19T13:47:02.300Z,100688.29
2022-12-19T13:48:03.262Z,100688.49
2022-12-19T13:49:03.869Z,100695.84
2022-12-19T13:51:08.192Z,100692.03
2022-12-19T13:52:07.028Z,100693.16
2022-12-19T13:55:13.182Z,100693.7
2022-12-19T13:56:14.589Z,100698.25
2022-12-19T13:59:16.843Z,100695.52
2022-12-19T14:00:18.038Z,100702.66
2022-12-19T14:01:21.186Z,100705.88
2022-12-19T14:03:22.848Z,100701.27
2022-12-19T14:06:26.074Z,100692.39
2022-12-19T14:08:29.299Z,100679.27
2022-12-19T14:11:32.839Z,100678.87
2022-12-19T14:11:38.339Z,100668.34
2022-12-19T14:14:00.452Z,100650.2
2022-12-19T14:14:00.504Z,100655.57
2022-12-19T14:15:46.063Z,100644.97
2022-12-19T14:16:49.045Z,100649.01
2022-12-19T14:17:49.293Z,100654.98
2022-12-19T14:18:49.600Z,100650.59
2022-12-19T14:19:50.447Z,100660.75
2022-12-19T14:22:04.658Z,100660.57
2022-12-19T14:22:09.607Z,100661.98
2022-12-19T14:25:52.309Z,100682.89
2022-12-19T14:28:20.291Z,100682.5
2022-12-19T14:28:23.674Z,100681.44
2022-12-19T14:31:19.234Z,100674.53
2022-12-19T14:33:40.544Z,100677.96
2022-12-19T14:33:45.481Z,100673.45
2022-12-19T14:36:10.526Z,100670.95
2022-12-19T14:36:32.454Z,100665.6
2022-12-19T14:39:19.586Z,100666.78
2022-12-19T14:39:22.317Z,100663.58
2022-12-19T14:39:36.060Z,100660.81
2022-12-19T14:40:43.295Z,100668.83
2022-12-19T14:43:55.529Z,100669.23
2022-12-19T14:52:53.601Z,100669.14
2022-12-19T14:54:08.204Z,100666.86
2022-12-19T14:54:15.866Z,100672.31